createdAt,value
2022-07-29T00:02:16.085Z,0.30
2022-07-29T00:04:42.844Z,0.40
2022-07-29T00:07:09.516Z,0.40
2022-07-29T00:09:42.991Z,0.40
2022-07-29T00:12:25.121Z,0.40
2022-07-29T00:14:53.953Z,0.47
2022-07-29T00:17:20.679Z,0.43
2022-07-29T00:19:47.276Z,0.40
2022-07-29T00:22:13.964Z,0.50
2022-07-29T00:24:40.642Z,0.30
2022-07-29T00:27:07.448Z,0.40
2022-07-29T00:29:35.011Z,0.40
2022-07-29T00:32:03.134Z,0.50
2022-07-29T00:34:48.585Z,0.40
2022-07-29T00:37:15.214Z,0.40
2022-07-29T00:39:41.885Z,0.43
2022-07-29T00:42:08.996Z,0.40
2022-07-29T00:44:40.528Z,0.40
2022-07-29T00:47:08.533Z,0.40
2022-07-29T00:49:36.577Z,0.50
2022-07-29T00:52:05.039Z,0.40
2022-07-29T00:54:32.022Z,0.57
2022-07-29T00:57:01.924Z,0.38
2022-07-29T00:59:34.770Z,0.40
2022-07-29T01:02:03.149Z,0.40
2022-07-29T01:04:30.754Z,0.40
2022-07-29T01:06:57.670Z,0.40
2022-07-29T01:09:42.041Z,0.50
2022-07-29T01:12:13.944Z,0.40
2022-07-29T01:14:41.617Z,0.40
2022-07-29T01:17:15.097Z,0.50
2022-07-29T01:20:12.534Z,0.60
2022-07-29T01:23:06.628Z,0.47
2022-07-29T01:25:45.307Z,0.43
2022-07-29T01:28:34.098Z,0.35
2022-07-29T01:31:03.611Z,0.50
2022-07-29T01:33:51.451Z,0.40
2022-07-29T01:36:41.441Z,0.47
2022-07-29T01:39:07.976Z,0.40
2022-07-29T01:41:39.651Z,0.40
2022-07-29T01:44:33.996Z,0.47
2022-07-29T01:47:07.217Z,0.40
2022-07-29T01:49:40.749Z,0.40
2022-07-29T01:52:14.305Z,0.50
2022-07-29T01:55:10.753Z,0.43
2022-07-29T01:57:40.858Z,0.40
2022-07-29T02:00:08.396Z,0.50
2022-07-29T02:02:37.828Z,0.40
2022-07-29T02:05:08.814Z,0.50
2022-07-29T02:07:37.382Z,0.43
2022-07-29T02:10:07.229Z,0.60
2022-07-29T02:12:34.726Z,0.57
2022-07-29T02:15:02.979Z,0.40
2022-07-29T02:17:39.888Z,0.47
2022-07-29T02:20:09.696Z,0.50
2022-07-29T02:22:39.204Z,0.50
2022-07-29T02:25:08.408Z,0.50
2022-07-29T02:27:42.560Z,0.50
2022-07-29T02:30:11.141Z,0.40
2022-07-29T02:32:40.237Z,0.52
2022-07-29T02:35:10.058Z,0.50
2022-07-29T02:37:38.640Z,0.70
2022-07-29T02:40:09.398Z,0.50
2022-07-29T02:42:38.446Z,0.50
2022-07-29T02:45:07.216Z,0.40
2022-07-29T02:48:00.676Z,0.50
2022-07-29T02:50:34.925Z,0.60
2022-07-29T02:53:09.481Z,0.60
2022-07-29T02:55:41.421Z,0.60
2022-07-29T02:58:16.203Z,0.50
2022-07-29T03:00:45.145Z,0.60
2022-07-29T03:03:18.239Z,0.60
2022-07-29T03:05:44.847Z,0.50
2022-07-29T03:08:12.782Z,0.50
2022-07-29T03:10:43.696Z,0.50
2022-07-29T03:13:11.271Z,0.63
2022-07-29T03:15:38.368Z,0.60
2022-07-29T03:18:07.503Z,0.60
2022-07-29T03:20:34.329Z,0.50
2022-07-29T03:23:01.239Z,0.60
2022-07-29T03:25:28.378Z,0.70
2022-07-29T03:27:55.129Z,0.40
2022-07-29T03:30:22.559Z,0.52
2022-07-29T03:32:52.157Z,0.50
2022-07-29T03:35:20.395Z,0.60
2022-07-29T03:37:47.844Z,0.50
2022-07-29T03:40:22.753Z,0.50
2022-07-29T03:42:51.315Z,0.68
2022-07-29T03:45:20.137Z,0.53
2022-07-29T03:47:54.720Z,0.50
2022-07-29T03:50:23.899Z,0.50
2022-07-29T03:52:51.018Z,0.57
2022-07-29T03:55:17.768Z,0.50
2022-07-29T03:57:45.963Z,0.53
2022-07-29T04:00:13.280Z,0.43
2022-07-29T04:02:40.954Z,0.63
2022-07-29T04:05:13.681Z,0.50
2022-07-29T04:07:41.245Z,0.70
2022-07-29T04:10:08.823Z,0.50
2022-07-29T04:12:36.101Z,0.50
2022-07-29T04:15:06.905Z,0.50
2022-07-29T04:17:33.535Z,0.70
2022-07-29T04:20:00.258Z,0.60
2022-07-29T04:22:26.925Z,0.60
2022-07-29T04:24:54.099Z,0.60
2022-07-29T04:27:20.827Z,0.60
2022-07-29T04:29:56.480Z,0.70
2022-07-29T04:32:25.142Z,0.60
2022-07-29T04:34:51.994Z,0.53
2022-07-29T04:37:18.586Z,0.85
2022-07-29T04:39:45.206Z,0.60
2022-07-29T04:42:12.007Z,0.55
2022-07-29T04:44:42.893Z,0.60
2022-07-29T04:47:09.932Z,0.90
2022-07-29T04:49:39.389Z,0.70
2022-07-29T04:52:07.042Z,0.73
2022-07-29T04:54:34.131Z,0.70
2022-07-29T04:57:00.845Z,0.70
2022-07-29T04:59:28.166Z,0.70
2022-07-29T05:01:54.980Z,0.50
2022-07-29T05:04:21.805Z,0.70
2022-07-29T05:06:49.424Z,0.80
2022-07-29T05:09:16.150Z,0.75
2022-07-29T05:11:42.781Z,0.87
2022-07-29T05:14:09.459Z,0.70
2022-07-29T05:16:36.048Z,0.90
2022-07-29T05:19:02.719Z,0.55
2022-07-29T05:21:29.355Z,0.90
2022-07-29T05:23:56.019Z,0.53
2022-07-29T05:26:22.603Z,0.70
2022-07-29T05:28:49.277Z,0.50
2022-07-29T05:31:16.007Z,0.57
2022-07-29T05:33:42.915Z,0.82
2022-07-29T05:36:09.827Z,0.60
2022-07-29T05:38:36.942Z,0.70
2022-07-29T05:41:04.193Z,0.80
2022-07-29T05:43:31.144Z,0.60
2022-07-29T05:45:58.040Z,0.70
2022-07-29T05:48:25.014Z,0.60
2022-07-29T05:50:51.938Z,0.68
2022-07-29T05:53:19.480Z,0.60
2022-07-29T05:55:47.009Z,0.65
2022-07-29T05:58:13.612Z,0.70
2022-07-29T06:00:40.874Z,0.80
2022-07-29T06:03:07.684Z,0.63
2022-07-29T06:05:34.348Z,0.70
2022-07-29T06:08:00.965Z,0.77
2022-07-29T06:10:27.883Z,0.80
2022-07-29T06:12:54.858Z,0.60
2022-07-29T06:15:21.450Z,0.80
2022-07-29T06:17:59.857Z,0.70
2022-07-29T06:20:30.792Z,0.70
2022-07-29T06:22:58.007Z,0.68
2022-07-29T06:25:24.624Z,0.63
2022-07-29T06:27:51.251Z,0.50
2022-07-29T06:30:17.920Z,0.70
2022-07-29T06:32:44.489Z,0.80
2022-07-29T06:35:41.089Z,0.60
2022-07-29T06:37:59.555Z,0.60
2022-07-29T06:40:45.108Z,0.70
2022-07-29T06:43:11.825Z,0.73
2022-07-29T06:45:42.310Z,0.70
2022-07-29T06:48:10.068Z,0.73
2022-07-29T06:50:36.780Z,0.63
2022-07-29T06:53:04.165Z,0.70
2022-07-29T06:55:30.764Z,0.70
2022-07-29T06:57:57.339Z,0.52
2022-07-29T07:00:23.990Z,0.80
2022-07-29T07:02:50.690Z,0.67
2022-07-29T07:05:17.355Z,0.75
2022-07-29T07:07:43.923Z,0.70
2022-07-29T07:10:10.583Z,0.80
2022-07-29T07:12:37.259Z,0.82
2022-07-29T07:15:04.176Z,0.80
2022-07-29T07:17:30.773Z,0.73
2022-07-29T07:19:57.357Z,0.63
2022-07-29T07:22:23.974Z,0.80
2022-07-29T07:24:50.557Z,0.65
2022-07-29T07:27:17.161Z,0.60
2022-07-29T07:29:44.191Z,0.70
2022-07-29T07:32:11.276Z,0.90
2022-07-29T07:34:39.049Z,0.70
2022-07-29T07:37:06.353Z,0.80
2022-07-29T07:39:32.990Z,0.80
2022-07-29T07:41:59.852Z,0.60
2022-07-29T07:44:26.554Z,0.80
2022-07-29T07:46:53.635Z,0.70
2022-07-29T07:49:21.719Z,0.60
2022-07-29T07:51:50.756Z,0.60
2022-07-29T07:54:18.918Z,0.65
2022-07-29T07:56:52.948Z,0.70
2022-07-29T07:59:20.106Z,0.70
2022-07-29T08:01:47.831Z,0.70
2022-07-29T08:04:27.305Z,0.60
2022-07-29T08:06:55.300Z,0.60
2022-07-29T08:09:29.254Z,0.60
2022-07-29T08:11:57.877Z,0.63
2022-07-29T08:14:24.578Z,0.70
2022-07-29T08:16:52.570Z,0.70
2022-07-29T08:19:19.314Z,0.50
2022-07-29T08:21:46.562Z,0.90
2022-07-29T08:24:32.215Z,0.70
2022-07-29T08:26:59.123Z,0.77
2022-07-29T08:29:27.240Z,0.70
2022-07-29T08:31:54.356Z,0.70
2022-07-29T08:34:27.909Z,0.70
2022-07-29T08:36:55.031Z,0.65
2022-07-29T08:39:21.826Z,0.50
2022-07-29T08:41:57.005Z,0.73
2022-07-29T08:44:30.833Z,0.60
2022-07-29T08:46:57.983Z,0.52
2022-07-29T08:49:24.638Z,0.60
2022-07-29T08:51:52.222Z,0.57
2022-07-29T08:54:19.614Z,0.53
2022-07-29T08:56:50.852Z,0.60
2022-07-29T08:59:22.077Z,0.60
2022-07-29T09:01:53.753Z,0.50
2022-07-29T09:04:22.129Z,0.70
2022-07-29T09:06:52.333Z,0.70
2022-07-29T09:09:19.229Z,0.70
2022-07-29T09:11:45.948Z,0.60
2022-07-29T09:14:14.406Z,0.60
2022-07-29T09:16:56.281Z,0.65
2022-07-29T09:19:37.193Z,0.80
2022-07-29T09:22:06.526Z,0.70
2022-07-29T09:24:44.052Z,0.57
2022-07-29T09:27:18.695Z,0.50
2022-07-29T09:29:45.391Z,0.50
2022-07-29T09:32:12.290Z,0.60
2022-07-29T09:34:39.428Z,0.50
2022-07-29T09:37:06.475Z,0.65
2022-07-29T09:39:47.335Z,0.55
2022-07-29T09:42:15.909Z,0.80
2022-07-29T09:44:49.174Z,0.70
2022-07-29T09:47:17.264Z,1.08
2022-07-29T09:50:04.389Z,0.60
2022-07-29T09:52:31.367Z,0.70
2022-07-29T09:55:08.427Z,0.90
2022-07-29T09:57:35.354Z,0.60
2022-07-29T10:00:08.020Z,0.60
2022-07-29T10:02:37.461Z,0.80
2022-07-29T10:05:06.869Z,0.80
2022-07-29T10:07:48.304Z,0.70
2022-07-29T10:10:38.041Z,0.70
2022-07-29T10:13:16.410Z,0.70
2022-07-29T10:15:46.779Z,0.90
2022-07-29T10:18:18.244Z,0.70
2022-07-29T10:20:45.253Z,0.90
2022-07-29T10:23:11.885Z,0.80
2022-07-29T10:25:38.547Z,0.63
2022-07-29T10:28:06.806Z,0.70
2022-07-29T10:30:33.736Z,0.80
2022-07-29T10:33:18.984Z,0.73
2022-07-29T10:35:54.425Z,0.67
2022-07-29T10:38:47.078Z,0.50
2022-07-29T10:41:36.269Z,0.70
2022-07-29T10:44:17.291Z,0.70
2022-07-29T10:46:46.459Z,0.80
2022-07-29T10:49:24.375Z,0.80
2022-07-29T10:51:51.855Z,0.70
2022-07-29T10:54:48.640Z,0.77
2022-07-29T10:57:52.539Z,0.60
2022-07-29T11:00:27.833Z,0.80
2022-07-29T11:02:56.439Z,0.70
2022-07-29T11:05:24.795Z,0.70
2022-07-29T11:08:20.206Z,0.70
2022-07-29T11:10:51.512Z,0.90
2022-07-29T11:13:47.349Z,0.77
2022-07-29T11:16:16.744Z,0.70
2022-07-29T11:19:26.170Z,0.80
2022-07-29T11:22:05.609Z,0.60
2022-07-29T11:24:34.774Z,0.75
2022-07-29T11:27:08.476Z,0.80
2022-07-29T11:29:40.404Z,1.10
2022-07-29T11:35:37.330Z,0.80
2022-07-29T11:38:23.682Z,0.70
2022-07-29T11:41:18.501Z,0.95
2022-07-29T11:43:50.874Z,0.97
2022-07-29T11:46:36.795Z,0.80
2022-07-29T11:49:09.252Z,0.90
2022-07-29T11:51:38.089Z,1.10
2022-07-29T11:54:27.403Z,1.17
2022-07-29T11:56:54.882Z,1.17
2022-07-29T11:59:22.367Z,1.20
2022-07-29T12:02:18.573Z,1.15
2022-07-29T12:04:57.792Z,1.00
2022-07-29T12:07:34.640Z,0.85
2022-07-29T12:10:03.156Z,1.17
2022-07-29T12:12:29.921Z,0.88
2022-07-29T12:14:56.667Z,0.95
2022-07-29T12:17:32.021Z,1.00
2022-07-29T12:20:00.777Z,1.08
2022-07-29T12:22:35.788Z,0.90
2022-07-29T12:25:31.948Z,1.10
2022-07-29T12:28:03.156Z,1.00
2022-07-29T12:30:42.846Z,1.00
2022-07-29T12:33:13.954Z,1.05
2022-07-29T12:35:42.410Z,1.07
2022-07-29T12:38:12.180Z,0.80
2022-07-29T12:40:39.155Z,0.90
2022-07-29T12:43:06.774Z,0.70
2022-07-29T12:45:33.530Z,1.30
2022-07-29T12:48:00.305Z,0.90
2022-07-29T12:50:27.028Z,1.08
2022-07-29T12:52:53.671Z,0.90
2022-07-29T12:55:43.241Z,0.90
2022-07-29T12:58:09.913Z,1.02
2022-07-29T13:00:36.770Z,0.80
2022-07-29T13:03:03.463Z,1.10
2022-07-29T13:05:44.598Z,1.10
2022-07-29T13:08:22.088Z,0.90
2022-07-29T13:10:48.981Z,0.90
2022-07-29T13:13:16.415Z,0.90
2022-07-29T13:15:49.872Z,0.80
2022-07-29T13:18:34.614Z,1.10
2022-07-29T13:21:16.055Z,0.82
2022-07-29T13:23:43.569Z,1.00
2022-07-29T13:26:12.500Z,0.93
2022-07-29T13:28:39.202Z,0.88
2022-07-29T13:31:06.067Z,1.20
2022-07-29T13:33:32.936Z,1.10
2022-07-29T13:35:59.551Z,1.10
2022-07-29T13:38:31.125Z,1.10
2022-07-29T13:40:58.221Z,1.00
2022-07-29T13:43:24.906Z,0.88
2022-07-29T13:45:51.600Z,1.00
2022-07-29T13:48:18.305Z,1.10
2022-07-29T13:50:45.226Z,1.20
2022-07-29T13:53:18.015Z,0.70
2022-07-29T13:55:46.115Z,0.90
2022-07-29T13:58:12.759Z,0.77
2022-07-29T14:00:39.436Z,1.00
2022-07-29T14:03:07.396Z,0.80
2022-07-29T14:05:34.108Z,0.93
2022-07-29T14:08:00.701Z,0.90
2022-07-29T14:10:27.435Z,0.90
2022-07-29T14:12:54.041Z,0.82
2022-07-29T14:15:21.277Z,1.00
2022-07-29T14:17:47.870Z,0.80
2022-07-29T14:20:16.513Z,1.00
2022-07-29T14:22:45.064Z,0.60
2022-07-29T14:25:14.713Z,1.00
2022-07-29T14:27:43.019Z,0.90
2022-07-29T14:30:10.541Z,0.85
2022-07-29T14:32:37.303Z,0.90
2022-07-29T14:35:04.483Z,0.93
2022-07-29T14:37:39.822Z,0.80
2022-07-29T14:40:08.758Z,0.70
2022-07-29T14:42:35.492Z,0.77
2022-07-29T14:45:02.179Z,1.08
2022-07-29T14:47:28.837Z,0.98
2022-07-29T14:49:55.624Z,0.93
2022-07-29T14:52:22.235Z,0.80
2022-07-29T14:54:48.876Z,1.00
2022-07-29T14:57:15.919Z,0.80
2022-07-29T14:59:42.510Z,1.05
2022-07-29T15:02:09.590Z,1.10
2022-07-29T15:04:36.514Z,0.90
2022-07-29T15:07:03.360Z,0.80
2022-07-29T15:09:29.974Z,0.80
2022-07-29T15:11:57.002Z,1.15
2022-07-29T15:14:23.933Z,0.93
2022-07-29T15:16:52.728Z,0.90
2022-07-29T15:19:20.172Z,0.90
2022-07-29T15:21:48.567Z,1.20
2022-07-29T15:24:19.611Z,0.80
2022-07-29T15:26:47.388Z,0.80
2022-07-29T15:29:14.857Z,0.80
2022-07-29T15:31:41.817Z,0.60
2022-07-29T15:34:08.629Z,1.00
2022-07-29T15:36:51.638Z,0.70
2022-07-29T15:39:19.461Z,0.90
2022-07-29T15:41:46.060Z,0.90
2022-07-29T15:44:12.728Z,0.70
2022-07-29T15:46:58.327Z,0.90
2022-07-29T15:49:46.398Z,0.73
2022-07-29T15:52:17.267Z,1.10
2022-07-29T15:54:43.921Z,1.10
2022-07-29T15:57:10.756Z,0.70
2022-07-29T15:59:37.647Z,0.85
2022-07-29T16:02:05.012Z,1.00
2022-07-29T16:04:32.448Z,0.90
2022-07-29T16:06:59.478Z,0.97
2022-07-29T16:09:26.642Z,0.65
2022-07-29T16:11:54.065Z,0.60
2022-07-29T16:14:21.175Z,0.88
2022-07-29T16:16:48.322Z,0.77
2022-07-29T16:19:15.354Z,0.70
2022-07-29T16:21:42.116Z,0.88
2022-07-29T16:24:08.903Z,0.70
2022-07-29T16:26:35.757Z,0.60
2022-07-29T16:29:02.388Z,0.77
2022-07-29T16:31:29.070Z,0.90
2022-07-29T16:33:56.110Z,0.70
2022-07-29T16:36:23.207Z,0.90
2022-07-29T16:38:50.406Z,0.90
2022-07-29T16:41:17.028Z,0.95
2022-07-29T16:43:43.639Z,0.77
2022-07-29T16:46:13.997Z,0.70
2022-07-29T16:48:45.446Z,0.90
2022-07-29T16:51:14.493Z,0.70
2022-07-29T16:53:41.611Z,0.75
2022-07-29T16:56:12.653Z,0.80
2022-07-29T16:58:43.485Z,0.70
2022-07-29T17:01:11.351Z,0.68
2022-07-29T17:04:00.207Z,0.70
2022-07-29T17:06:28.668Z,0.70
2022-07-29T17:08:56.459Z,0.70
2022-07-29T17:11:23.073Z,0.70
2022-07-29T17:14:10.229Z,0.80
2022-07-29T17:16:37.000Z,0.70
2022-07-29T17:19:03.739Z,0.80
2022-07-29T17:21:30.385Z,0.70
2022-07-29T17:23:58.840Z,0.60
2022-07-29T17:26:26.852Z,0.70
2022-07-29T17:28:55.023Z,0.60
2022-07-29T17:31:21.910Z,0.60
2022-07-29T17:33:48.605Z,0.70
2022-07-29T17:36:24.143Z,0.70
2022-07-29T17:38:53.244Z,0.70
2022-07-29T17:41:21.120Z,0.60
2022-07-29T17:43:48.470Z,0.70
2022-07-29T17:46:15.684Z,0.70
2022-07-29T17:48:43.969Z,0.70
2022-07-29T17:51:10.861Z,0.68
2022-07-29T17:53:37.930Z,0.50
2022-07-29T17:56:05.264Z,0.80
2022-07-29T17:58:32.518Z,0.67
2022-07-29T18:00:59.372Z,0.80
2022-07-29T18:03:26.064Z,0.50
2022-07-29T18:05:53.551Z,0.50
2022-07-29T18:08:20.275Z,0.80
2022-07-29T18:10:46.885Z,0.70
2022-07-29T18:13:13.858Z,0.73
2022-07-29T18:15:41.058Z,0.75
2022-07-29T18:18:08.395Z,0.77
2022-07-29T18:20:35.381Z,0.60
2022-07-29T18:23:02.036Z,0.60
2022-07-29T18:25:29.611Z,0.70
2022-07-29T18:28:00.303Z,0.88
2022-07-29T18:30:28.626Z,0.70
2022-07-29T18:33:19.652Z,0.60
2022-07-29T18:35:41.900Z,0.80
2022-07-29T18:38:08.509Z,0.63
2022-07-29T18:40:35.482Z,0.70
2022-07-29T18:43:02.224Z,0.70
2022-07-29T18:45:29.012Z,0.60
2022-07-29T18:47:57.148Z,0.60
2022-07-29T18:50:28.965Z,0.63
2022-07-29T18:52:58.457Z,0.70
2022-07-29T18:55:25.789Z,0.63
2022-07-29T18:57:55.430Z,0.70
2022-07-29T19:00:24.068Z,0.70
2022-07-29T19:02:50.968Z,0.70
2022-07-29T19:05:18.028Z,0.68
2022-07-29T19:07:44.635Z,0.70
2022-07-29T19:10:12.017Z,0.63
2022-07-29T19:12:39.160Z,0.70
2022-07-29T19:15:07.680Z,0.60
2022-07-29T19:17:34.314Z,0.50
2022-07-29T19:20:00.937Z,0.60
2022-07-29T19:22:27.800Z,0.60
2022-07-29T19:24:54.432Z,0.70
2022-07-29T19:27:21.539Z,0.63
2022-07-29T19:29:48.203Z,0.70
2022-07-29T19:32:25.345Z,0.57
2022-07-29T19:35:11.400Z,0.60
2022-07-29T19:37:38.293Z,0.70
2022-07-29T19:40:06.162Z,0.50
2022-07-29T19:42:33.019Z,0.63
2022-07-29T19:45:00.005Z,0.70
2022-07-29T19:47:26.821Z,0.60
2022-07-29T19:49:53.823Z,0.63
2022-07-29T19:52:20.485Z,0.50
2022-07-29T19:54:47.095Z,0.80
2022-07-29T19:57:14.183Z,0.65
2022-07-29T19:59:41.141Z,0.70
2022-07-29T20:02:10.936Z,0.80
2022-07-29T20:04:38.685Z,0.60
2022-07-29T20:07:06.771Z,0.77
2022-07-29T20:09:34.976Z,0.60
2022-07-29T20:12:01.689Z,0.68
2022-07-29T20:14:28.668Z,0.60
2022-07-29T20:16:55.262Z,0.70
2022-07-29T20:19:21.954Z,0.68
2022-07-29T20:21:49.303Z,0.60
2022-07-29T20:24:15.898Z,0.88
2022-07-29T20:26:42.586Z,1.63
2022-07-29T20:29:09.225Z,0.60
2022-07-29T20:31:36.156Z,0.77
2022-07-29T20:34:03.441Z,0.65
2022-07-29T20:36:30.118Z,0.73
2022-07-29T20:38:56.786Z,0.60
2022-07-29T20:41:23.546Z,0.50
2022-07-29T20:43:50.289Z,0.75
2022-07-29T20:46:17.939Z,0.63
2022-07-29T20:48:45.391Z,0.70
2022-07-29T20:51:12.080Z,0.70
2022-07-29T20:53:40.045Z,0.70
2022-07-29T20:56:07.723Z,0.68
2022-07-29T20:58:36.100Z,0.68
2022-07-29T21:01:03.239Z,0.60
2022-07-29T21:03:30.582Z,0.50
2022-07-29T21:05:57.236Z,0.60
2022-07-29T21:08:24.710Z,0.65
2022-07-29T21:10:51.523Z,0.52
2022-07-29T21:13:18.676Z,0.60
2022-07-29T21:15:49.248Z,0.50
2022-07-29T21:18:27.445Z,0.70
2022-07-29T21:20:55.005Z,0.70
2022-07-29T21:23:22.008Z,0.63
2022-07-29T21:25:48.679Z,0.75
2022-07-29T21:28:27.666Z,0.70
2022-07-29T21:30:59.528Z,0.60
2022-07-29T21:33:27.842Z,0.55
2022-07-29T21:38:41.790Z,0.60
2022-07-29T21:41:10.922Z,0.70
2022-07-29T21:43:37.964Z,0.60
2022-07-29T21:46:09.301Z,0.50
2022-07-29T21:48:36.248Z,0.50
2022-07-29T21:51:02.930Z,0.60
2022-07-29T21:53:30.675Z,0.60
2022-07-29T21:55:57.685Z,0.45
2022-07-29T21:58:25.192Z,0.57
2022-07-29T22:00:52.252Z,0.50
2022-07-29T22:03:18.987Z,0.68
2022-07-29T22:05:46.203Z,0.53
2022-07-29T22:08:13.505Z,0.60
2022-07-29T22:10:40.483Z,0.68
2022-07-29T22:13:07.198Z,0.70
2022-07-29T22:15:33.812Z,0.57
2022-07-29T22:18:00.578Z,0.60
2022-07-29T22:20:27.701Z,0.70
2022-07-29T22:22:54.468Z,0.60
2022-07-29T22:25:21.991Z,0.70
2022-07-29T22:27:48.723Z,0.60
2022-07-29T22:30:15.873Z,0.83
2022-07-29T22:32:42.928Z,0.60
2022-07-29T22:35:09.871Z,0.50
2022-07-29T22:37:36.643Z,0.60
2022-07-29T22:40:04.115Z,0.50
2022-07-29T22:42:30.776Z,0.60
2022-07-29T22:44:57.548Z,0.60
2022-07-29T22:47:46.480Z,0.75
2022-07-29T22:50:11.122Z,0.75
2022-07-29T22:52:37.736Z,0.63
2022-07-29T22:55:05.420Z,0.60
2022-07-29T22:57:32.056Z,0.60
2022-07-29T23:00:01.934Z,0.50
2022-07-29T23:02:29.108Z,0.60
2022-07-29T23:04:55.813Z,0.70
2022-07-29T23:07:22.878Z,0.43
2022-07-29T23:09:49.804Z,0.82
2022-07-29T23:12:16.568Z,0.50
2022-07-29T23:14:43.972Z,0.40
2022-07-29T23:17:10.720Z,0.70
2022-07-29T23:19:37.452Z,0.70
2022-07-29T23:22:04.732Z,0.50
2022-07-29T23:24:31.336Z,0.63
2022-07-29T23:26:58.142Z,0.50
2022-07-29T23:29:24.962Z,0.50
2022-07-29T23:31:51.549Z,0.70
2022-07-29T23:34:18.184Z,0.50
2022-07-29T23:36:44.793Z,0.60
2022-07-29T23:39:12.272Z,0.50
2022-07-29T23:41:39.150Z,0.65
2022-07-29T23:44:05.974Z,0.40
2022-07-29T23:46:32.683Z,0.50
2022-07-29T23:48:59.376Z,0.68
2022-07-29T23:51:26.174Z,0.52
2022-07-29T23:53:54.233Z,0.60
2022-07-29T23:56:21.293Z,0.63
2022-07-29T23:58:48.033Z,0.60
